sensor_id;sensor_type;location;lat;lon;timestamp;P1;durP1;ratioP1;P2;durP2;ratioP2
58990;SDS011;44781;53.444;14.476;2022-12-07T00:03:54;10.10;;;5.50;;
58990;SDS011;44781;53.444;14.476;2022-12-07T00:06:38;8.50;;;5.00;;
58990;SDS011;44781;53.444;14.476;2022-12-07T00:09:15;8.60;;;4.90;;
58990;SDS011;44781;53.444;14.476;2022-12-07T00:11:43;9.30;;;5.10;;
58990;SDS011;44781;53.444;14.476;2022-12-07T00:14:13;10.10;;;5.30;;
58990;SDS011;44781;53.444;14.476;2022-12-07T00:16:42;11.80;;;5.40;;
58990;SDS011;44781;53.444;14.476;2022-12-07T00:19:11;9.50;;;5.20;;
58990;SDS011;44781;53.444;14.476;2022-12-07T00:21:40;9.00;;;5.50;;
58990;SDS011;44781;53.444;14.476;2022-12-07T00:24:09;9.70;;;5.70;;
58990;SDS011;44781;53.444;14.476;2022-12-07T00:26:38;9.50;;;5.30;;
58990;SDS011;44781;53.444;14.476;2022-12-07T00:29:20;10.10;;;5.70;;
58990;SDS011;44781;53.444;14.476;2022-12-07T00:31:48;9.90;;;6.10;;
58990;SDS011;44781;53.444;14.476;2022-12-07T00:34:19;10.10;;;5.40;;
58990;SDS011;44781;53.444;14.476;2022-12-07T00:36:47;9.00;;;5.20;;
58990;SDS011;44781;53.444;14.476;2022-12-07T00:39:15;8.50;;;5.00;;
58990;SDS011;44781;53.444;14.476;2022-12-07T00:41:43;9.10;;;5.30;;
58990;SDS011;44781;53.444;14.476;2022-12-07T00:44:10;9.60;;;5.80;;
58990;SDS011;44781;53.444;14.476;2022-12-07T00:46:37;9.10;;;5.20;;
58990;SDS011;44781;53.444;14.476;2022-12-07T00:49:04;8.10;;;5.20;;
58990;SDS011;44781;53.444;14.476;2022-12-07T00:51:31;8.30;;;4.90;;
58990;SDS011;44781;53.444;14.476;2022-12-07T00:53:58;9.80;;;6.10;;
58990;SDS011;44781;53.444;14.476;2022-12-07T00:56:26;8.90;;;5.30;;
58990;SDS011;44781;53.444;14.476;2022-12-07T00:58:59;9.80;;;5.20;;
58990;SDS011;44781;53.444;14.476;2022-12-07T01:01:28;8.90;;;5.10;;
58990;SDS011;44781;53.444;14.476;2022-12-07T01:03:58;8.30;;;4.90;;
58990;SDS011;44781;53.444;14.476;2022-12-07T01:06:28;8.60;;;5.20;;
58990;SDS011;44781;53.444;14.476;2022-12-07T01:08:56;9.20;;;5.70;;
58990;SDS011;44781;53.444;14.476;2022-12-07T01:11:25;9.40;;;5.80;;
58990;SDS011;44781;53.444;14.476;2022-12-07T01:13:55;7.80;;;4.90;;
58990;SDS011;44781;53.444;14.476;2022-12-07T01:16:24;8.00;;;5.20;;
58990;SDS011;44781;53.444;14.476;2022-12-07T01:18:53;9.90;;;5.40;;
58990;SDS011;44781;53.444;14.476;2022-12-07T01:21:23;8.20;;;5.00;;
58990;SDS011;44781;53.444;14.476;2022-12-07T01:23:51;7.50;;;4.70;;
58990;SDS011;44781;53.444;14.476;2022-12-07T01:26:20;6.80;;;4.20;;
58990;SDS011;44781;53.444;14.476;2022-12-07T01:28:50;6.70;;;4.10;;
58990;SDS011;44781;53.444;14.476;2022-12-07T01:31:18;8.90;;;5.00;;
58990;SDS011;44781;53.444;14.476;2022-12-07T01:33:48;7.40;;;4.20;;
58990;SDS011;44781;53.444;14.476;2022-12-07T01:36:24;7.70;;;4.70;;
58990;SDS011;44781;53.444;14.476;2022-12-07T01:39:00;7.80;;;4.50;;
58990;SDS011;44781;53.444;14.476;2022-12-07T01:41:31;7.80;;;4.30;;
58990;SDS011;44781;53.444;14.476;2022-12-07T01:44:19;7.70;;;4.20;;
58990;SDS011;44781;53.444;14.476;2022-12-07T01:47:02;7.80;;;4.40;;
58990;SDS011;44781;53.444;14.476;2022-12-07T01:49:34;7.20;;;4.50;;
58990;SDS011;44781;53.444;14.476;2022-12-07T01:52:16;7.80;;;4.20;;
58990;SDS011;44781;53.444;14.476;2022-12-07T01:54:49;7.00;;;4.10;;
58990;SDS011;44781;53.444;14.476;2022-12-07T01:59:49;8.70;;;4.50;;
58990;SDS011;44781;53.444;14.476;2022-12-07T02:02:48;8.00;;;4.20;;
58990;SDS011;44781;53.444;14.476;2022-12-07T02:05:10;6.90;;;4.10;;
58990;SDS011;44781;53.444;14.476;2022-12-07T02:07:38;7.30;;;3.90;;
58990;SDS011;44781;53.444;14.476;2022-12-07T02:10:15;6.50;;;3.60;;
58990;SDS011;44781;53.444;14.476;2022-12-07T02:12:44;7.20;;;4.00;;
58990;SDS011;44781;53.444;14.476;2022-12-07T02:15:15;7.80;;;3.90;;
58990;SDS011;44781;53.444;14.476;2022-12-07T02:17:47;6.80;;;3.90;;
58990;SDS011;44781;53.444;14.476;2022-12-07T02:20:57;7.70;;;4.40;;
58990;SDS011;44781;53.444;14.476;2022-12-07T02:29:44;7.90;;;4.20;;
58990;SDS011;44781;53.444;14.476;2022-12-07T02:32:15;6.80;;;4.10;;
58990;SDS011;44781;53.444;14.476;2022-12-07T02:40:01;6.70;;;3.90;;
58990;SDS011;44781;53.444;14.476;2022-12-07T02:42:32;5.90;;;3.60;;
58990;SDS011;44781;53.444;14.476;2022-12-07T02:45:03;6.60;;;3.80;;
58990;SDS011;44781;53.444;14.476;2022-12-07T02:47:32;7.10;;;3.90;;
58990;SDS011;44781;53.444;14.476;2022-12-07T02:50:05;7.60;;;3.90;;
58990;SDS011;44781;53.444;14.476;2022-12-07T02:52:33;8.20;;;3.70;;
58990;SDS011;44781;53.444;14.476;2022-12-07T02:55:00;6.40;;;3.80;;
58990;SDS011;44781;53.444;14.476;2022-12-07T02:57:33;7.10;;;4.00;;
58990;SDS011;44781;53.444;14.476;2022-12-07T03:00:20;7.70;;;3.80;;
58990;SDS011;44781;53.444;14.476;2022-12-07T03:02:50;6.80;;;3.50;;
58990;SDS011;44781;53.444;14.476;2022-12-07T03:08:01;7.30;;;3.60;;
58990;SDS011;44781;53.444;14.476;2022-12-07T03:13:21;8.10;;;4.50;;
58990;SDS011;44781;53.444;14.476;2022-12-07T03:16:05;7.50;;;4.20;;
58990;SDS011;44781;53.444;14.476;2022-12-07T03:18:40;7.90;;;4.40;;
58990;SDS011;44781;53.444;14.476;2022-12-07T03:21:33;9.40;;;4.90;;
58990;SDS011;44781;53.444;14.476;2022-12-07T03:24:09;10.30;;;4.90;;
58990;SDS011;44781;53.444;14.476;2022-12-07T03:26:42;8.10;;;4.50;;
58990;SDS011;44781;53.444;14.476;2022-12-07T03:29:24;7.80;;;4.40;;
58990;SDS011;44781;53.444;14.476;2022-12-07T03:31:56;8.40;;;4.70;;
58990;SDS011;44781;53.444;14.476;2022-12-07T03:34:34;8.90;;;5.00;;
58990;SDS011;44781;53.444;14.476;2022-12-07T03:40:04;8.20;;;4.50;;
58990;SDS011;44781;53.444;14.476;2022-12-07T03:42:33;8.60;;;5.00;;
58990;SDS011;44781;53.444;14.476;2022-12-07T03:45:01;8.20;;;4.80;;
58990;SDS011;44781;53.444;14.476;2022-12-07T03:47:30;8.90;;;5.10;;
58990;SDS011;44781;53.444;14.476;2022-12-07T03:50:06;7.90;;;4.50;;
58990;SDS011;44781;53.444;14.476;2022-12-07T03:52:47;10.00;;;5.50;;
58990;SDS011;44781;53.444;14.476;2022-12-07T03:55:30;9.20;;;5.00;;
58990;SDS011;44781;53.444;14.476;2022-12-07T03:58:02;9.40;;;5.30;;
58990;SDS011;44781;53.444;14.476;2022-12-07T04:00:33;10.20;;;5.40;;
58990;SDS011;44781;53.444;14.476;2022-12-07T04:03:00;8.70;;;5.20;;
58990;SDS011;44781;53.444;14.476;2022-12-07T04:05:27;9.50;;;5.60;;
58990;SDS011;44781;53.444;14.476;2022-12-07T04:07:54;9.00;;;5.30;;
58990;SDS011;44781;53.444;14.476;2022-12-07T04:10:21;10.00;;;5.60;;
58990;SDS011;44781;53.444;14.476;2022-12-07T04:12:48;10.20;;;5.10;;
58990;SDS011;44781;53.444;14.476;2022-12-07T04:15:15;9.80;;;5.90;;
58990;SDS011;44781;53.444;14.476;2022-12-07T04:17:42;10.20;;;6.50;;
58990;SDS011;44781;53.444;14.476;2022-12-07T04:20:09;10.20;;;6.10;;
58990;SDS011;44781;53.444;14.476;2022-12-07T04:22:37;11.00;;;6.20;;
58990;SDS011;44781;53.444;14.476;2022-12-07T04:25:04;11.40;;;7.10;;
58990;SDS011;44781;53.444;14.476;2022-12-07T04:27:32;11.10;;;7.00;;
58990;SDS011;44781;53.444;14.476;2022-12-07T04:30:02;12.20;;;6.80;;
58990;SDS011;44781;53.444;14.476;2022-12-07T04:32:29;11.20;;;6.40;;
58990;SDS011;44781;53.444;14.476;2022-12-07T04:34:56;11.10;;;6.40;;
58990;SDS011;44781;53.444;14.476;2022-12-07T04:37:23;10.50;;;6.40;;
58990;SDS011;44781;53.444;14.476;2022-12-07T04:39:50;11.10;;;6.90;;
58990;SDS011;44781;53.444;14.476;2022-12-07T04:42:17;12.30;;;7.20;;
58990;SDS011;44781;53.444;14.476;2022-12-07T04:44:44;12.50;;;7.70;;
58990;SDS011;44781;53.444;14.476;2022-12-07T04:47:11;12.50;;;7.70;;
58990;SDS011;44781;53.444;14.476;2022-12-07T04:49:38;14.90;;;9.30;;
58990;SDS011;44781;53.444;14.476;2022-12-07T04:52:05;14.30;;;8.10;;
58990;SDS011;44781;53.444;14.476;2022-12-07T04:54:32;15.10;;;9.40;;
58990;SDS011;44781;53.444;14.476;2022-12-07T04:56:59;14.10;;;8.80;;
58990;SDS011;44781;53.444;14.476;2022-12-07T04:59:27;12.70;;;8.90;;
58990;SDS011;44781;53.444;14.476;2022-12-07T05:01:54;13.70;;;8.10;;
58990;SDS011;44781;53.444;14.476;2022-12-07T05:04:21;13.50;;;8.50;;
58990;SDS011;44781;53.444;14.476;2022-12-07T05:06:48;11.80;;;7.90;;
58990;SDS011;44781;53.444;14.476;2022-12-07T05:09:15;13.70;;;8.60;;
58990;SDS011;44781;53.444;14.476;2022-12-07T05:11:42;12.80;;;8.60;;
58990;SDS011;44781;53.444;14.476;2022-12-07T05:14:13;12.70;;;8.50;;
58990;SDS011;44781;53.444;14.476;2022-12-07T05:16:41;12.20;;;7.90;;
58990;SDS011;44781;53.444;14.476;2022-12-07T05:19:09;11.60;;;7.50;;
58990;SDS011;44781;53.444;14.476;2022-12-07T05:21:37;14.90;;;8.90;;
58990;SDS011;44781;53.444;14.476;2022-12-07T05:24:06;13.60;;;8.40;;
58990;SDS011;44781;53.444;14.476;2022-12-07T05:26:35;13.00;;;8.50;;
58990;SDS011;44781;53.444;14.476;2022-12-07T05:29:02;12.40;;;8.00;;
58990;SDS011;44781;53.444;14.476;2022-12-07T05:31:30;12.50;;;8.40;;
58990;SDS011;44781;53.444;14.476;2022-12-07T05:33:57;11.80;;;8.60;;
58990;SDS011;44781;53.444;14.476;2022-12-07T05:36:24;14.40;;;9.30;;
58990;SDS011;44781;53.444;14.476;2022-12-07T05:38:50;14.10;;;9.20;;
58990;SDS011;44781;53.444;14.476;2022-12-07T05:41:18;15.10;;;8.70;;
58990;SDS011;44781;53.444;14.476;2022-12-07T05:44:04;14.80;;;9.90;;
58990;SDS011;44781;53.444;14.476;2022-12-07T05:46:32;14.70;;;9.60;;
58990;SDS011;44781;53.444;14.476;2022-12-07T05:49:00;15.60;;;9.00;;
58990;SDS011;44781;53.444;14.476;2022-12-07T05:51:28;15.00;;;10.30;;
58990;SDS011;44781;53.444;14.476;2022-12-07T05:53:55;14.60;;;9.30;;
58990;SDS011;44781;53.444;14.476;2022-12-07T05:56:23;13.10;;;7.50;;
58990;SDS011;44781;53.444;14.476;2022-12-07T05:58:50;14.80;;;8.90;;
58990;SDS011;44781;53.444;14.476;2022-12-07T06:01:35;12.80;;;7.70;;
58990;SDS011;44781;53.444;14.476;2022-12-07T06:04:02;14.40;;;8.00;;
58990;SDS011;44781;53.444;14.476;2022-12-07T06:06:29;12.90;;;8.20;;
58990;SDS011;44781;53.444;14.476;2022-12-07T06:08:56;14.30;;;8.60;;
58990;SDS011;44781;53.444;14.476;2022-12-07T06:11:23;15.70;;;8.70;;
58990;SDS011;44781;53.444;14.476;2022-12-07T06:14:09;14.20;;;9.60;;
58990;SDS011;44781;53.444;14.476;2022-12-07T06:16:36;15.00;;;10.10;;
58990;SDS011;44781;53.444;14.476;2022-12-07T06:19:03;15.80;;;10.10;;
58990;SDS011;44781;53.444;14.476;2022-12-07T06:21:30;16.30;;;10.40;;
58990;SDS011;44781;53.444;14.476;2022-12-07T06:23:57;24.30;;;13.60;;
58990;SDS011;44781;53.444;14.476;2022-12-07T06:26:24;22.00;;;13.10;;
58990;SDS011;44781;53.444;14.476;2022-12-07T06:28:52;20.50;;;13.10;;
58990;SDS011;44781;53.444;14.476;2022-12-07T06:31:19;25.00;;;14.70;;
58990;SDS011;44781;53.444;14.476;2022-12-07T06:33:47;27.20;;;16.70;;
58990;SDS011;44781;53.444;14.476;2022-12-07T06:36:14;29.40;;;18.20;;
58990;SDS011;44781;53.444;14.476;2022-12-07T06:38:41;23.60;;;16.50;;
58990;SDS011;44781;53.444;14.476;2022-12-07T06:41:08;25.60;;;16.00;;
58990;SDS011;44781;53.444;14.476;2022-12-07T06:43:35;26.20;;;15.30;;
58990;SDS011;44781;53.444;14.476;2022-12-07T06:46:05;22.00;;;12.90;;
58990;SDS011;44781;53.444;14.476;2022-12-07T06:48:32;21.10;;;13.00;;
58990;SDS011;44781;53.444;14.476;2022-12-07T06:51:00;20.00;;;13.10;;
58990;SDS011;44781;53.444;14.476;2022-12-07T06:53:27;18.50;;;12.20;;
58990;SDS011;44781;53.444;14.476;2022-12-07T06:55:54;18.40;;;12.80;;
58990;SDS011;44781;53.444;14.476;2022-12-07T06:58:21;19.10;;;12.30;;
58990;SDS011;44781;53.444;14.476;2022-12-07T07:00:48;20.20;;;13.00;;
58990;SDS011;44781;53.444;14.476;2022-12-07T07:03:17;18.00;;;12.40;;
58990;SDS011;44781;53.444;14.476;2022-12-07T07:05:44;19.00;;;11.70;;
58990;SDS011;44781;53.444;14.476;2022-12-07T07:08:12;17.80;;;11.30;;
58990;SDS011;44781;53.444;14.476;2022-12-07T07:10:39;25.20;;;15.30;;
58990;SDS011;44781;53.444;14.476;2022-12-07T07:13:07;20.10;;;13.10;;
58990;SDS011;44781;53.444;14.476;2022-12-07T07:15:37;16.40;;;10.30;;
58990;SDS011;44781;53.444;14.476;2022-12-07T07:18:08;17.20;;;9.70;;
58990;SDS011;44781;53.444;14.476;2022-12-07T07:20:36;16.00;;;10.10;;
58990;SDS011;44781;53.444;14.476;2022-12-07T07:23:06;16.20;;;9.80;;
58990;SDS011;44781;53.444;14.476;2022-12-07T07:25:36;17.50;;;10.60;;
58990;SDS011;44781;53.444;14.476;2022-12-07T07:28:04;18.00;;;11.60;;
58990;SDS011;44781;53.444;14.476;2022-12-07T07:30:31;20.50;;;12.60;;
58990;SDS011;44781;53.444;14.476;2022-12-07T07:32:59;19.90;;;12.20;;
58990;SDS011;44781;53.444;14.476;2022-12-07T07:35:28;16.30;;;10.10;;
58990;SDS011;44781;53.444;14.476;2022-12-07T07:37:59;15.20;;;8.50;;
58990;SDS011;44781;53.444;14.476;2022-12-07T07:40:26;17.60;;;10.20;;
58990;SDS011;44781;53.444;14.476;2022-12-07T07:42:58;20.40;;;12.90;;
58990;SDS011;44781;53.444;14.476;2022-12-07T07:45:26;18.10;;;11.00;;
58990;SDS011;44781;53.444;14.476;2022-12-07T07:47:53;15.80;;;9.40;;
58990;SDS011;44781;53.444;14.476;2022-12-07T07:50:20;14.40;;;8.60;;
58990;SDS011;44781;53.444;14.476;2022-12-07T07:52:48;15.20;;;8.00;;
58990;SDS011;44781;53.444;14.476;2022-12-07T07:55:17;14.00;;;8.20;;
58990;SDS011;44781;53.444;14.476;2022-12-07T07:57:47;14.40;;;7.50;;
58990;SDS011;44781;53.444;14.476;2022-12-07T08:00:14;15.10;;;8.10;;
58990;SDS011;44781;53.444;14.476;2022-12-07T08:02:42;14.10;;;8.20;;
58990;SDS011;44781;53.444;14.476;2022-12-07T08:05:12;13.90;;;8.50;;
58990;SDS011;44781;53.444;14.476;2022-12-07T08:07:40;14.20;;;7.40;;
58990;SDS011;44781;53.444;14.476;2022-12-07T08:10:07;14.10;;;8.00;;
58990;SDS011;44781;53.444;14.476;2022-12-07T08:12:38;14.00;;;8.30;;
58990;SDS011;44781;53.444;14.476;2022-12-07T08:15:27;14.30;;;9.00;;
58990;SDS011;44781;53.444;14.476;2022-12-07T08:17:58;13.80;;;7.60;;
58990;SDS011;44781;53.444;14.476;2022-12-07T08:20:25;15.10;;;8.10;;
58990;SDS011;44781;53.444;14.476;2022-12-07T08:22:53;13.20;;;7.60;;
58990;SDS011;44781;53.444;14.476;2022-12-07T08:25:20;12.70;;;7.80;;
58990;SDS011;44781;53.444;14.476;2022-12-07T08:27:49;12.50;;;7.00;;
58990;SDS011;44781;53.444;14.476;2022-12-07T08:30:18;13.00;;;7.70;;
58990;SDS011;44781;53.444;14.476;2022-12-07T08:32:45;12.20;;;6.90;;
58990;SDS011;44781;53.444;14.476;2022-12-07T08:35:13;12.30;;;6.60;;
58990;SDS011;44781;53.444;14.476;2022-12-07T08:37:41;12.70;;;6.70;;
58990;SDS011;44781;53.444;14.476;2022-12-07T08:40:09;13.90;;;6.70;;
58990;SDS011;44781;53.444;14.476;2022-12-07T08:42:38;11.90;;;6.80;;
58990;SDS011;44781;53.444;14.476;2022-12-07T08:45:07;12.10;;;6.80;;
58990;SDS011;44781;53.444;14.476;2022-12-07T08:47:36;10.80;;;6.00;;
58990;SDS011;44781;53.444;14.476;2022-12-07T08:50:07;11.70;;;6.50;;
58990;SDS011;44781;53.444;14.476;2022-12-07T08:52:35;12.40;;;6.50;;
58990;SDS011;44781;53.444;14.476;2022-12-07T08:55:04;10.90;;;6.60;;
58990;SDS011;44781;53.444;14.476;2022-12-07T08:57:32;12.20;;;6.60;;
58990;SDS011;44781;53.444;14.476;2022-12-07T09:00:03;13.40;;;6.70;;
58990;SDS011;44781;53.444;14.476;2022-12-07T09:02:34;11.90;;;7.10;;
58990;SDS011;44781;53.444;14.476;2022-12-07T09:05:02;10.50;;;6.20;;
58990;SDS011;44781;53.444;14.476;2022-12-07T09:07:29;10.80;;;6.10;;
58990;SDS011;44781;53.444;14.476;2022-12-07T09:09:59;10.40;;;5.40;;
58990;SDS011;44781;53.444;14.476;2022-12-07T09:12:26;20.00;;;7.30;;
58990;SDS011;44781;53.444;14.476;2022-12-07T09:14:53;9.30;;;5.30;;
58990;SDS011;44781;53.444;14.476;2022-12-07T09:17:20;9.60;;;6.00;;
58990;SDS011;44781;53.444;14.476;2022-12-07T09:19:47;10.00;;;5.90;;
58990;SDS011;44781;53.444;14.476;2022-12-07T09:22:15;9.90;;;5.60;;
58990;SDS011;44781;53.444;14.476;2022-12-07T09:24:42;10.20;;;5.50;;
58990;SDS011;44781;53.444;14.476;2022-12-07T09:27:09;9.40;;;4.10;;
58990;SDS011;44781;53.444;14.476;2022-12-07T09:29:36;8.80;;;5.20;;
58990;SDS011;44781;53.444;14.476;2022-12-07T09:32:03;8.50;;;4.70;;
58990;SDS011;44781;53.444;14.476;2022-12-07T09:34:31;7.40;;;4.30;;
58990;SDS011;44781;53.444;14.476;2022-12-07T09:37:00;8.00;;;4.10;;
58990;SDS011;44781;53.444;14.476;2022-12-07T09:39:29;7.90;;;4.30;;
58990;SDS011;44781;53.444;14.476;2022-12-07T09:41:56;8.00;;;4.60;;
58990;SDS011;44781;53.444;14.476;2022-12-07T09:44:25;7.00;;;4.00;;
58990;SDS011;44781;53.444;14.476;2022-12-07T09:46:54;8.70;;;4.40;;
58990;SDS011;44781;53.444;14.476;2022-12-07T09:49:23;8.50;;;4.20;;
58990;SDS011;44781;53.444;14.476;2022-12-07T09:52:58;7.20;;;4.20;;
58990;SDS011;44781;53.444;14.476;2022-12-07T09:57:27;7.70;;;4.10;;
58990;SDS011;44781;53.444;14.476;2022-12-07T09:59:57;10.90;;;5.20;;
58990;SDS011;44781;53.444;14.476;2022-12-07T10:02:38;15.50;;;5.40;;
58990;SDS011;44781;53.444;14.476;2022-12-07T10:05:16;8.20;;;4.90;;
58990;SDS011;44781;53.444;14.476;2022-12-07T10:07:47;9.00;;;4.60;;
58990;SDS011;44781;53.444;14.476;2022-12-07T10:10:23;8.50;;;4.90;;
58990;SDS011;44781;53.444;14.476;2022-12-07T10:15:20;19.90;;;6.30;;
58990;SDS011;44781;53.444;14.476;2022-12-07T10:17:48;9.30;;;5.30;;
58990;SDS011;44781;53.444;14.476;2022-12-07T10:23:03;9.30;;;5.20;;
58990;SDS011;44781;53.444;14.476;2022-12-07T10:25:33;8.50;;;4.80;;
58990;SDS011;44781;53.444;14.476;2022-12-07T10:30:50;9.60;;;5.50;;
58990;SDS011;44781;53.444;14.476;2022-12-07T10:33:30;9.10;;;5.20;;
58990;SDS011;44781;53.444;14.476;2022-12-07T10:36:38;10.10;;;5.30;;
58990;SDS011;44781;53.444;14.476;2022-12-07T10:42:00;10.60;;;5.80;;
58990;SDS011;44781;53.444;14.476;2022-12-07T10:44:30;8.90;;;5.20;;
58990;SDS011;44781;53.444;14.476;2022-12-07T10:52:42;9.60;;;5.60;;
58990;SDS011;44781;53.444;14.476;2022-12-07T10:55:22;9.80;;;5.90;;
58990;SDS011;44781;53.444;14.476;2022-12-07T11:17:58;12.40;;;7.70;;
58990;SDS011;44781;53.444;14.476;2022-12-07T11:37:35;10.60;;;6.10;;
58990;SDS011;44781;53.444;14.476;2022-12-07T11:42:48;10.40;;;6.30;;
58990;SDS011;44781;53.444;14.476;2022-12-07T11:45:26;9.20;;;5.40;;
58990;SDS011;44781;53.444;14.476;2022-12-07T11:50:40;9.60;;;6.20;;
58990;SDS011;44781;53.444;14.476;2022-12-07T11:53:21;10.50;;;6.40;;
58990;SDS011;44781;53.444;14.476;2022-12-07T11:55:57;9.30;;;5.70;;
58990;SDS011;44781;53.444;14.476;2022-12-07T12:01:00;8.90;;;4.80;;
58990;SDS011;44781;53.444;14.476;2022-12-07T12:03:43;8.30;;;5.10;;
58990;SDS011;44781;53.444;14.476;2022-12-07T12:06:13;8.60;;;4.50;;
58990;SDS011;44781;53.444;14.476;2022-12-07T12:11:37;9.50;;;5.30;;
58990;SDS011;44781;53.444;14.476;2022-12-07T12:14:33;7.60;;;4.40;;
58990;SDS011;44781;53.444;14.476;2022-12-07T12:20:22;9.40;;;4.70;;
58990;SDS011;44781;53.444;14.476;2022-12-07T12:23:10;6.60;;;4.50;;
58990;SDS011;44781;53.444;14.476;2022-12-07T12:25:40;7.70;;;3.30;;
58990;SDS011;44781;53.444;14.476;2022-12-07T12:31:13;5.90;;;2.90;;
58990;SDS011;44781;53.444;14.476;2022-12-07T12:33:47;6.80;;;3.30;;
58990;SDS011;44781;53.444;14.476;2022-12-07T12:46:57;5.90;;;3.20;;
58990;SDS011;44781;53.444;14.476;2022-12-07T12:51:56;4.40;;;2.40;;
58990;SDS011;44781;53.444;14.476;2022-12-07T12:54:35;4.20;;;2.40;;
58990;SDS011;44781;53.444;14.476;2022-12-07T13:02:23;4.60;;;2.30;;
58990;SDS011;44781;53.444;14.476;2022-12-07T13:04:59;4.20;;;2.40;;
58990;SDS011;44781;53.444;14.476;2022-12-07T13:28:27;3.60;;;1.60;;
58990;SDS011;44781;53.444;14.476;2022-12-07T13:33:57;4.40;;;2.00;;
58990;SDS011;44781;53.444;14.476;2022-12-07T13:36:25;4.20;;;1.40;;
58990;SDS011;44781;53.444;14.476;2022-12-07T13:38:59;4.40;;;1.50;;
58990;SDS011;44781;53.444;14.476;2022-12-07T13:41:37;4.20;;;1.60;;
58990;SDS011;44781;53.444;14.476;2022-12-07T13:44:12;3.00;;;1.40;;
58990;SDS011;44781;53.444;14.476;2022-12-07T13:49:19;4.40;;;1.50;;
58990;SDS011;44781;53.444;14.476;2022-12-07T13:51:49;3.00;;;1.30;;
58990;SDS011;44781;53.444;14.476;2022-12-07T13:54:17;4.80;;;1.70;;
58990;SDS011;44781;53.444;14.476;2022-12-07T13:56:47;3.10;;;1.50;;
58990;SDS011;44781;53.444;14.476;2022-12-07T13:59:18;5.40;;;1.50;;
58990;SDS011;44781;53.444;14.476;2022-12-07T14:01:54;3.80;;;1.40;;
58990;SDS011;44781;53.444;14.476;2022-12-07T14:04:40;4.60;;;1.60;;
58990;SDS011;44781;53.444;14.476;2022-12-07T14:10:34;4.80;;;2.00;;
58990;SDS011;44781;53.444;14.476;2022-12-07T14:13:24;4.70;;;2.20;;
58990;SDS011;44781;53.444;14.476;2022-12-07T14:16:02;6.30;;;2.90;;
58990;SDS011;44781;53.444;14.476;2022-12-07T14:21:03;7.20;;;3.30;;
58990;SDS011;44781;53.444;14.476;2022-12-07T14:24:10;9.20;;;4.50;;
58990;SDS011;44781;53.444;14.476;2022-12-07T14:26:42;7.80;;;3.30;;
58990;SDS011;44781;53.444;14.476;2022-12-07T14:29:32;7.80;;;3.70;;
58990;SDS011;44781;53.444;14.476;2022-12-07T14:35:17;9.70;;;4.70;;
58990;SDS011;44781;53.444;14.476;2022-12-07T14:37:45;12.40;;;5.20;;
58990;SDS011;44781;53.444;14.476;2022-12-07T14:40:19;15.80;;;5.90;;
58990;SDS011;44781;53.444;14.476;2022-12-07T14:42:57;15.20;;;5.80;;
58990;SDS011;44781;53.444;14.476;2022-12-07T14:45:28;12.30;;;5.20;;
58990;SDS011;44781;53.444;14.476;2022-12-07T14:47:56;10.20;;;4.90;;
58990;SDS011;44781;53.444;14.476;2022-12-07T14:50:23;9.20;;;3.40;;
58990;SDS011;44781;53.444;14.476;2022-12-07T14:52:54;9.60;;;3.80;;
58990;SDS011;44781;53.444;14.476;2022-12-07T14:55:26;6.60;;;3.10;;
58990;SDS011;44781;53.444;14.476;2022-12-07T14:57:57;5.40;;;2.70;;
58990;SDS011;44781;53.444;14.476;2022-12-07T15:00:26;7.60;;;2.90;;
58990;SDS011;44781;53.444;14.476;2022-12-07T15:02:54;7.60;;;3.50;;
58990;SDS011;44781;53.444;14.476;2022-12-07T15:05:22;7.00;;;3.10;;
58990;SDS011;44781;53.444;14.476;2022-12-07T15:07:51;7.60;;;3.30;;
58990;SDS011;44781;53.444;14.476;2022-12-07T15:10:30;7.70;;;2.90;;
58990;SDS011;44781;53.444;14.476;2022-12-07T15:12:59;7.20;;;2.60;;
58990;SDS011;44781;53.444;14.476;2022-12-07T15:15:47;7.20;;;2.80;;
58990;SDS011;44781;53.444;14.476;2022-12-07T15:18:21;6.30;;;2.60;;
58990;SDS011;44781;53.444;14.476;2022-12-07T15:20:51;8.30;;;3.20;;
58990;SDS011;44781;53.444;14.476;2022-12-07T15:23:18;8.20;;;3.70;;
58990;SDS011;44781;53.444;14.476;2022-12-07T15:25:46;8.90;;;3.60;;
58990;SDS011;44781;53.444;14.476;2022-12-07T15:28:14;7.40;;;3.70;;
58990;SDS011;44781;53.444;14.476;2022-12-07T15:30:42;5.70;;;2.30;;
58990;SDS011;44781;53.444;14.476;2022-12-07T15:33:10;7.20;;;3.20;;
58990;SDS011;44781;53.444;14.476;2022-12-07T15:35:41;6.40;;;3.00;;
58990;SDS011;44781;53.444;14.476;2022-12-07T15:38:10;6.60;;;3.30;;
58990;SDS011;44781;53.444;14.476;2022-12-07T15:40:38;8.30;;;3.60;;
58990;SDS011;44781;53.444;14.476;2022-12-07T15:43:05;6.10;;;2.80;;
58990;SDS011;44781;53.444;14.476;2022-12-07T15:45:52;5.70;;;2.20;;
58990;SDS011;44781;53.444;14.476;2022-12-07T15:48:22;6.80;;;3.00;;
58990;SDS011;44781;53.444;14.476;2022-12-07T15:50:49;5.90;;;2.20;;
58990;SDS011;44781;53.444;14.476;2022-12-07T15:53:19;7.30;;;2.40;;
58990;SDS011;44781;53.444;14.476;2022-12-07T15:55:46;6.10;;;2.70;;
58990;SDS011;44781;53.444;14.476;2022-12-07T15:58:14;6.80;;;2.60;;
58990;SDS011;44781;53.444;14.476;2022-12-07T16:00:41;6.60;;;2.40;;
58990;SDS011;44781;53.444;14.476;2022-12-07T16:03:08;5.70;;;2.20;;
58990;SDS011;44781;53.444;14.476;2022-12-07T16:05:38;5.40;;;2.40;;
58990;SDS011;44781;53.444;14.476;2022-12-07T16:08:05;5.70;;;1.80;;
58990;SDS011;44781;53.444;14.476;2022-12-07T16:10:32;6.10;;;1.90;;
58990;SDS011;44781;53.444;14.476;2022-12-07T16:12:59;5.20;;;1.70;;
58990;SDS011;44781;53.444;14.476;2022-12-07T16:15:26;6.10;;;2.20;;
58990;SDS011;44781;53.444;14.476;2022-12-07T16:17:53;6.10;;;2.00;;
58990;SDS011;44781;53.444;14.476;2022-12-07T16:20:22;5.40;;;2.00;;
58990;SDS011;44781;53.444;14.476;2022-12-07T16:22:51;4.40;;;1.50;;
58990;SDS011;44781;53.444;14.476;2022-12-07T16:25:19;4.40;;;1.60;;
58990;SDS011;44781;53.444;14.476;2022-12-07T16:27:46;6.20;;;1.90;;
58990;SDS011;44781;53.444;14.476;2022-12-07T16:30:14;3.80;;;1.30;;
58990;SDS011;44781;53.444;14.476;2022-12-07T16:32:42;4.10;;;1.60;;
58990;SDS011;44781;53.444;14.476;2022-12-07T16:35:10;3.60;;;1.50;;
58990;SDS011;44781;53.444;14.476;2022-12-07T16:37:38;4.50;;;1.40;;
58990;SDS011;44781;53.444;14.476;2022-12-07T16:40:05;2.60;;;1.30;;
58990;SDS011;44781;53.444;14.476;2022-12-07T16:42:33;2.30;;;1.40;;
58990;SDS011;44781;53.444;14.476;2022-12-07T16:45:02;4.00;;;1.10;;
58990;SDS011;44781;53.444;14.476;2022-12-07T16:47:29;4.40;;;1.40;;
58990;SDS011;44781;53.444;14.476;2022-12-07T16:49:56;3.50;;;0.90;;
58990;SDS011;44781;53.444;14.476;2022-12-07T16:52:23;3.30;;;1.20;;
58990;SDS011;44781;53.444;14.476;2022-12-07T16:54:50;3.90;;;1.00;;
58990;SDS011;44781;53.444;14.476;2022-12-07T16:57:17;7.20;;;2.20;;
58990;SDS011;44781;53.444;14.476;2022-12-07T16:59:56;4.40;;;2.00;;
58990;SDS011;44781;53.444;14.476;2022-12-07T17:02:23;4.60;;;1.80;;
58990;SDS011;44781;53.444;14.476;2022-12-07T17:04:52;6.70;;;2.70;;
58990;SDS011;44781;53.444;14.476;2022-12-07T17:07:21;5.50;;;2.20;;
58990;SDS011;44781;53.444;14.476;2022-12-07T17:09:48;5.50;;;2.10;;
58990;SDS011;44781;53.444;14.476;2022-12-07T17:12:16;4.60;;;2.10;;
58990;SDS011;44781;53.444;14.476;2022-12-07T17:14:44;3.90;;;1.40;;
58990;SDS011;44781;53.444;14.476;2022-12-07T17:17:29;5.10;;;1.50;;
58990;SDS011;44781;53.444;14.476;2022-12-07T17:19:57;3.80;;;1.40;;
58990;SDS011;44781;53.444;14.476;2022-12-07T17:22:27;3.80;;;1.40;;